sensor_id;sensor_type;location;lat;lon;timestamp;P1;durP1;ratioP1;P2;durP2;ratioP2
11931;SDS011;6025;51.368;6.788;2022-07-30T00:01:19;7.22;;;3.30;;
11931;SDS011;6025;51.368;6.788;2022-07-30T00:06:10;8.00;;;3.75;;
11931;SDS011;6025;51.368;6.788;2022-07-30T00:11:02;6.47;;;3.28;;
11931;SDS011;6025;51.368;6.788;2022-07-30T00:15:53;6.47;;;3.50;;
11931;SDS011;6025;51.368;6.788;2022-07-30T00:20:47;5.47;;;3.78;;
11931;SDS011;6025;51.368;6.788;2022-07-30T00:25:38;5.28;;;3.60;;
11931;SDS011;6025;51.368;6.788;2022-07-30T00:30:30;5.13;;;3.65;;
11931;SDS011;6025;51.368;6.788;2022-07-30T00:35:21;3.85;;;3.40;;
11931;SDS011;6025;51.368;6.788;2022-07-30T00:40:15;4.22;;;3.10;;
11931;SDS011;6025;51.368;6.788;2022-07-30T00:45:07;6.95;;;3.78;;
11931;SDS011;6025;51.368;6.788;2022-07-30T00:49:59;5.10;;;3.80;;
11931;SDS011;6025;51.368;6.788;2022-07-30T00:54:53;5.10;;;3.55;;
11931;SDS011;6025;51.368;6.788;2022-07-30T00:59:46;5.55;;;3.60;;
11931;SDS011;6025;51.368;6.788;2022-07-30T01:04:37;5.32;;;3.50;;
11931;SDS011;6025;51.368;6.788;2022-07-30T01:09:29;6.95;;;3.55;;
11931;SDS011;6025;51.368;6.788;2022-07-30T01:14:21;5.72;;;3.47;;
11931;SDS011;6025;51.368;6.788;2022-07-30T01:19:16;5.70;;;3.80;;
11931;SDS011;6025;51.368;6.788;2022-07-30T01:24:29;6.25;;;3.70;;
11931;SDS011;6025;51.368;6.788;2022-07-30T01:29:26;5.43;;;3.42;;
11931;SDS011;6025;51.368;6.788;2022-07-30T01:34:19;3.88;;;3.17;;
11931;SDS011;6025;51.368;6.788;2022-07-30T01:39:12;4.20;;;3.65;;
11931;SDS011;6025;51.368;6.788;2022-07-30T01:44:05;4.95;;;3.13;;
11931;SDS011;6025;51.368;6.788;2022-07-30T01:48:58;4.40;;;3.42;;
11931;SDS011;6025;51.368;6.788;2022-07-30T01:53:51;4.30;;;3.30;;
11931;SDS011;6025;51.368;6.788;2022-07-30T01:58:44;4.63;;;3.20;;
11931;SDS011;6025;51.368;6.788;2022-07-30T02:03:37;5.28;;;3.50;;
11931;SDS011;6025;51.368;6.788;2022-07-30T02:08:33;6.97;;;3.63;;
11931;SDS011;6025;51.368;6.788;2022-07-30T02:13:28;5.25;;;3.40;;
11931;SDS011;6025;51.368;6.788;2022-07-30T02:18:22;4.55;;;3.17;;
11931;SDS011;6025;51.368;6.788;2022-07-30T02:23:21;5.15;;;3.75;;
11931;SDS011;6025;51.368;6.788;2022-07-30T02:28:16;8.43;;;4.03;;
11931;SDS011;6025;51.368;6.788;2022-07-30T02:33:09;4.50;;;3.53;;
11931;SDS011;6025;51.368;6.788;2022-07-30T02:38:01;7.22;;;3.63;;
11931;SDS011;6025;51.368;6.788;2022-07-30T02:42:54;10.90;;;3.67;;
11931;SDS011;6025;51.368;6.788;2022-07-30T02:47:50;5.45;;;3.50;;
11931;SDS011;6025;51.368;6.788;2022-07-30T02:52:44;7.88;;;3.90;;
11931;SDS011;6025;51.368;6.788;2022-07-30T02:57:36;7.40;;;3.75;;
11931;SDS011;6025;51.368;6.788;2022-07-30T03:02:28;6.63;;;4.25;;
11931;SDS011;6025;51.368;6.788;2022-07-30T03:07:21;7.15;;;3.85;;
11931;SDS011;6025;51.368;6.788;2022-07-30T03:12:13;4.38;;;3.40;;
11931;SDS011;6025;51.368;6.788;2022-07-30T03:17:06;4.30;;;3.70;;
11931;SDS011;6025;51.368;6.788;2022-07-30T03:21:59;5.03;;;4.18;;
11931;SDS011;6025;51.368;6.788;2022-07-30T03:26:53;5.28;;;4.18;;
11931;SDS011;6025;51.368;6.788;2022-07-30T03:31:45;6.25;;;4.05;;
11931;SDS011;6025;51.368;6.788;2022-07-30T03:36:37;7.75;;;4.30;;
11931;SDS011;6025;51.368;6.788;2022-07-30T03:41:30;6.70;;;4.13;;
11931;SDS011;6025;51.368;6.788;2022-07-30T03:46:24;4.97;;;4.10;;
11931;SDS011;6025;51.368;6.788;2022-07-30T03:51:17;8.60;;;3.88;;
11931;SDS011;6025;51.368;6.788;2022-07-30T03:56:09;6.82;;;4.60;;
11931;SDS011;6025;51.368;6.788;2022-07-30T04:01:01;7.63;;;4.15;;
11931;SDS011;6025;51.368;6.788;2022-07-30T04:05:54;6.53;;;4.40;;
11931;SDS011;6025;51.368;6.788;2022-07-30T04:10:46;5.57;;;4.50;;
11931;SDS011;6025;51.368;6.788;2022-07-30T04:15:40;5.65;;;4.80;;
11931;SDS011;6025;51.368;6.788;2022-07-30T04:20:36;7.45;;;4.43;;
11931;SDS011;6025;51.368;6.788;2022-07-30T04:25:32;5.18;;;4.68;;
11931;SDS011;6025;51.368;6.788;2022-07-30T04:30:24;6.50;;;4.40;;
11931;SDS011;6025;51.368;6.788;2022-07-30T04:35:18;5.03;;;4.38;;
11931;SDS011;6025;51.368;6.788;2022-07-30T04:40:17;7.10;;;5.43;;
11931;SDS011;6025;51.368;6.788;2022-07-30T04:45:10;6.20;;;5.00;;
11931;SDS011;6025;51.368;6.788;2022-07-30T04:50:02;9.55;;;4.95;;
11931;SDS011;6025;51.368;6.788;2022-07-30T04:54:55;7.10;;;6.38;;
11931;SDS011;6025;51.368;6.788;2022-07-30T04:59:49;9.60;;;7.72;;
11931;SDS011;6025;51.368;6.788;2022-07-30T05:04:42;12.02;;;7.22;;
11931;SDS011;6025;51.368;6.788;2022-07-30T05:09:34;10.18;;;7.28;;
11931;SDS011;6025;51.368;6.788;2022-07-30T05:14:26;9.52;;;6.85;;
11931;SDS011;6025;51.368;6.788;2022-07-30T05:19:18;27.45;;;17.38;;
11931;SDS011;6025;51.368;6.788;2022-07-30T05:24:12;25.95;;;19.88;;
11931;SDS011;6025;51.368;6.788;2022-07-30T05:29:03;27.80;;;20.23;;
11931;SDS011;6025;51.368;6.788;2022-07-30T05:33:55;33.22;;;21.50;;
11931;SDS011;6025;51.368;6.788;2022-07-30T05:38:47;30.63;;;20.88;;
11931;SDS011;6025;51.368;6.788;2022-07-30T05:43:40;32.88;;;20.58;;
11931;SDS011;6025;51.368;6.788;2022-07-30T05:48:32;33.65;;;20.98;;
11931;SDS011;6025;51.368;6.788;2022-07-30T05:53:24;33.47;;;22.45;;
11931;SDS011;6025;51.368;6.788;2022-07-30T05:58:16;30.80;;;21.38;;
11931;SDS011;6025;51.368;6.788;2022-07-30T06:03:09;34.53;;;20.10;;
11931;SDS011;6025;51.368;6.788;2022-07-30T06:08:01;26.45;;;18.98;;
11931;SDS011;6025;51.368;6.788;2022-07-30T06:12:52;32.75;;;20.63;;
11931;SDS011;6025;51.368;6.788;2022-07-30T06:17:45;25.90;;;19.80;;
11931;SDS011;6025;51.368;6.788;2022-07-30T06:22:38;30.80;;;20.85;;
11931;SDS011;6025;51.368;6.788;2022-07-30T06:27:30;25.13;;;19.70;;
11931;SDS011;6025;51.368;6.788;2022-07-30T06:32:22;29.05;;;21.50;;
11931;SDS011;6025;51.368;6.788;2022-07-30T06:37:14;31.63;;;24.27;;
11931;SDS011;6025;51.368;6.788;2022-07-30T06:42:07;33.63;;;24.17;;
11931;SDS011;6025;51.368;6.788;2022-07-30T06:46:58;37.90;;;26.52;;
11931;SDS011;6025;51.368;6.788;2022-07-30T06:51:50;28.23;;;22.95;;
11931;SDS011;6025;51.368;6.788;2022-07-30T06:56:42;30.10;;;21.75;;
11931;SDS011;6025;51.368;6.788;2022-07-30T07:01:35;20.52;;;17.00;;
11931;SDS011;6025;51.368;6.788;2022-07-30T07:06:26;20.00;;;14.55;;
11931;SDS011;6025;51.368;6.788;2022-07-30T07:11:18;16.85;;;13.82;;
11931;SDS011;6025;51.368;6.788;2022-07-30T07:16:09;18.83;;;15.02;;
11931;SDS011;6025;51.368;6.788;2022-07-30T07:21:03;19.65;;;14.43;;
11931;SDS011;6025;51.368;6.788;2022-07-30T07:25:55;16.10;;;13.20;;
11931;SDS011;6025;51.368;6.788;2022-07-30T07:30:46;17.05;;;12.15;;
11931;SDS011;6025;51.368;6.788;2022-07-30T07:35:38;15.38;;;12.38;;
11931;SDS011;6025;51.368;6.788;2022-07-30T07:40:31;14.88;;;13.20;;
11931;SDS011;6025;51.368;6.788;2022-07-30T07:45:23;15.45;;;12.82;;
11931;SDS011;6025;51.368;6.788;2022-07-30T07:50:15;13.60;;;12.20;;
11931;SDS011;6025;51.368;6.788;2022-07-30T07:55:07;19.90;;;16.58;;
11931;SDS011;6025;51.368;6.788;2022-07-30T08:00:01;21.23;;;17.85;;
11931;SDS011;6025;51.368;6.788;2022-07-30T08:04:53;21.20;;;16.85;;
11931;SDS011;6025;51.368;6.788;2022-07-30T08:09:45;19.23;;;17.02;;
11931;SDS011;6025;51.368;6.788;2022-07-30T08:14:36;24.73;;;16.90;;
11931;SDS011;6025;51.368;6.788;2022-07-30T08:19:29;30.38;;;22.58;;
11931;SDS011;6025;51.368;6.788;2022-07-30T08:24:21;30.38;;;23.90;;
11931;SDS011;6025;51.368;6.788;2022-07-30T08:29:12;25.30;;;20.67;;
11931;SDS011;6025;51.368;6.788;2022-07-30T08:34:04;21.17;;;17.70;;
11931;SDS011;6025;51.368;6.788;2022-07-30T08:38:57;16.85;;;13.07;;
11931;SDS011;6025;51.368;6.788;2022-07-30T08:43:49;20.33;;;14.75;;
11931;SDS011;6025;51.368;6.788;2022-07-30T08:48:41;17.25;;;13.32;;
11931;SDS011;6025;51.368;6.788;2022-07-30T08:53:33;16.38;;;12.65;;
11931;SDS011;6025;51.368;6.788;2022-07-30T08:58:28;17.67;;;13.70;;
11931;SDS011;6025;51.368;6.788;2022-07-30T09:03:20;18.52;;;13.07;;
11931;SDS011;6025;51.368;6.788;2022-07-30T09:08:12;22.60;;;14.27;;
11931;SDS011;6025;51.368;6.788;2022-07-30T09:13:04;22.33;;;13.93;;
11931;SDS011;6025;51.368;6.788;2022-07-30T09:17:57;14.35;;;10.50;;
11931;SDS011;6025;51.368;6.788;2022-07-30T09:22:51;18.15;;;10.52;;
11931;SDS011;6025;51.368;6.788;2022-07-30T09:27:44;14.48;;;8.40;;
11931;SDS011;6025;51.368;6.788;2022-07-30T09:32:45;10.18;;;6.75;;
11931;SDS011;6025;51.368;6.788;2022-07-30T09:37:39;10.13;;;5.70;;
11931;SDS011;6025;51.368;6.788;2022-07-30T09:42:31;7.65;;;4.88;;
11931;SDS011;6025;51.368;6.788;2022-07-30T09:47:29;6.05;;;4.55;;
11931;SDS011;6025;51.368;6.788;2022-07-30T09:52:26;12.55;;;4.90;;
11931;SDS011;6025;51.368;6.788;2022-07-30T09:57:19;11.73;;;6.50;;
11931;SDS011;6025;51.368;6.788;2022-07-30T10:02:10;9.00;;;5.82;;
11931;SDS011;6025;51.368;6.788;2022-07-30T10:07:02;10.30;;;5.55;;
11931;SDS011;6025;51.368;6.788;2022-07-30T10:11:54;10.38;;;4.25;;
11931;SDS011;6025;51.368;6.788;2022-07-30T10:16:49;7.35;;;4.45;;
11931;SDS011;6025;51.368;6.788;2022-07-30T10:21:41;8.73;;;4.00;;
11931;SDS011;6025;51.368;6.788;2022-07-30T10:26:33;6.90;;;2.95;;
11931;SDS011;6025;51.368;6.788;2022-07-30T10:31:25;9.43;;;3.80;;
11931;SDS011;6025;51.368;6.788;2022-07-30T10:36:18;9.27;;;3.60;;
11931;SDS011;6025;51.368;6.788;2022-07-30T10:41:14;8.35;;;3.50;;
11931;SDS011;6025;51.368;6.788;2022-07-30T10:46:14;7.43;;;4.22;;
11931;SDS011;6025;51.368;6.788;2022-07-30T10:51:10;7.13;;;3.22;;
11931;SDS011;6025;51.368;6.788;2022-07-30T10:56:10;6.05;;;3.28;;
11931;SDS011;6025;51.368;6.788;2022-07-30T11:01:03;9.30;;;3.42;;
11931;SDS011;6025;51.368;6.788;2022-07-30T11:16:59;7.70;;;3.35;;
11931;SDS011;6025;51.368;6.788;2022-07-30T11:27:34;8.90;;;4.25;;
11931;SDS011;6025;51.368;6.788;2022-07-30T11:32:30;8.52;;;4.25;;
11931;SDS011;6025;51.368;6.788;2022-07-30T11:37:22;8.45;;;3.90;;
11931;SDS011;6025;51.368;6.788;2022-07-30T11:42:23;5.82;;;3.42;;
11931;SDS011;6025;51.368;6.788;2022-07-30T11:47:16;8.85;;;6.05;;
11931;SDS011;6025;51.368;6.788;2022-07-30T11:52:08;9.02;;;4.95;;
11931;SDS011;6025;51.368;6.788;2022-07-30T11:57:00;6.18;;;3.35;;
11931;SDS011;6025;51.368;6.788;2022-07-30T12:01:52;4.60;;;2.67;;
11931;SDS011;6025;51.368;6.788;2022-07-30T12:06:47;6.63;;;2.78;;
11931;SDS011;6025;51.368;6.788;2022-07-30T12:11:39;7.43;;;2.60;;
11931;SDS011;6025;51.368;6.788;2022-07-30T12:16:31;5.10;;;2.20;;
11931;SDS011;6025;51.368;6.788;2022-07-30T12:21:23;3.05;;;1.70;;
11931;SDS011;6025;51.368;6.788;2022-07-30T12:26:20;4.90;;;2.10;;
11931;SDS011;6025;51.368;6.788;2022-07-30T12:31:13;6.35;;;2.25;;
11931;SDS011;6025;51.368;6.788;2022-07-30T12:36:05;3.33;;;1.70;;
11931;SDS011;6025;51.368;6.788;2022-07-30T12:40:58;7.20;;;1.70;;
11931;SDS011;6025;51.368;6.788;2022-07-30T12:45:56;2.95;;;2.08;;
11931;SDS011;6025;51.368;6.788;2022-07-30T12:50:48;3.33;;;1.70;;
11931;SDS011;6025;51.368;6.788;2022-07-30T12:55:55;3.00;;;2.00;;
11931;SDS011;6025;51.368;6.788;2022-07-30T13:01:03;4.05;;;1.80;;
11931;SDS011;6025;51.368;6.788;2022-07-30T13:05:55;3.85;;;1.77;;
11931;SDS011;6025;51.368;6.788;2022-07-30T13:10:53;3.28;;;1.65;;
11931;SDS011;6025;51.368;6.788;2022-07-30T13:15:55;8.23;;;2.00;;
11931;SDS011;6025;51.368;6.788;2022-07-30T13:20:48;3.78;;;1.50;;
11931;SDS011;6025;51.368;6.788;2022-07-30T13:30:45;2.60;;;1.30;;
11931;SDS011;6025;51.368;6.788;2022-07-30T13:35:36;3.00;;;1.38;;
11931;SDS011;6025;51.368;6.788;2022-07-30T13:40:29;3.03;;;1.60;;
11931;SDS011;6025;51.368;6.788;2022-07-30T13:45:21;4.32;;;1.60;;
11931;SDS011;6025;51.368;6.788;2022-07-30T13:50:13;3.55;;;1.50;;
11931;SDS011;6025;51.368;6.788;2022-07-30T13:55:05;4.22;;;1.77;;
11931;SDS011;6025;51.368;6.788;2022-07-30T13:59:58;4.50;;;2.13;;
11931;SDS011;6025;51.368;6.788;2022-07-30T14:04:49;2.83;;;1.52;;
11931;SDS011;6025;51.368;6.788;2022-07-30T14:09:41;4.32;;;1.90;;
11931;SDS011;6025;51.368;6.788;2022-07-30T14:14:33;2.40;;;1.52;;
11931;SDS011;6025;51.368;6.788;2022-07-30T14:19:26;2.78;;;1.35;;
11931;SDS011;6025;51.368;6.788;2022-07-30T14:24:18;3.53;;;1.33;;
11931;SDS011;6025;51.368;6.788;2022-07-30T14:29:11;4.22;;;1.30;;
11931;SDS011;6025;51.368;6.788;2022-07-30T14:34:02;3.28;;;1.30;;
11931;SDS011;6025;51.368;6.788;2022-07-30T14:38:55;3.45;;;1.52;;
11931;SDS011;6025;51.368;6.788;2022-07-30T14:43:47;2.25;;;1.75;;
11931;SDS011;6025;51.368;6.788;2022-07-30T14:48:39;4.30;;;2.25;;
11931;SDS011;6025;51.368;6.788;2022-07-30T14:53:30;2.65;;;1.30;;
11931;SDS011;6025;51.368;6.788;2022-07-30T14:58:23;3.28;;;1.38;;
11931;SDS011;6025;51.368;6.788;2022-07-30T15:03:15;4.53;;;1.83;;
11931;SDS011;6025;51.368;6.788;2022-07-30T15:08:07;6.63;;;1.48;;
11931;SDS011;6025;51.368;6.788;2022-07-30T15:12:59;2.78;;;1.77;;
11931;SDS011;6025;51.368;6.788;2022-07-30T15:17:51;3.78;;;1.48;;
11931;SDS011;6025;51.368;6.788;2022-07-30T15:22:43;5.93;;;1.90;;
11931;SDS011;6025;51.368;6.788;2022-07-30T15:27:35;3.22;;;1.92;;
11931;SDS011;6025;51.368;6.788;2022-07-30T15:32:27;2.08;;;1.23;;
11931;SDS011;6025;51.368;6.788;2022-07-30T15:37:20;2.03;;;1.50;;
11931;SDS011;6025;51.368;6.788;2022-07-30T15:42:11;3.30;;;1.42;;
11931;SDS011;6025;51.368;6.788;2022-07-30T15:47:03;2.33;;;1.20;;
11931;SDS011;6025;51.368;6.788;2022-07-30T15:51:56;2.20;;;1.30;;
11931;SDS011;6025;51.368;6.788;2022-07-30T15:56:50;3.08;;;1.40;;
11931;SDS011;6025;51.368;6.788;2022-07-30T16:01:43;2.53;;;1.52;;
11931;SDS011;6025;51.368;6.788;2022-07-30T16:06:35;3.70;;;1.45;;
11931;SDS011;6025;51.368;6.788;2022-07-30T16:11:27;3.10;;;1.50;;
11931;SDS011;6025;51.368;6.788;2022-07-30T16:16:20;3.47;;;1.60;;
11931;SDS011;6025;51.368;6.788;2022-07-30T16:21:11;3.72;;;2.38;;
11931;SDS011;6025;51.368;6.788;2022-07-30T16:26:03;2.80;;;1.70;;
11931;SDS011;6025;51.368;6.788;2022-07-30T16:30:54;4.03;;;1.70;;
11931;SDS011;6025;51.368;6.788;2022-07-30T16:35:47;6.88;;;1.70;;
11931;SDS011;6025;51.368;6.788;2022-07-30T16:40:39;5.43;;;1.55;;
11931;SDS011;6025;51.368;6.788;2022-07-30T16:45:31;3.97;;;1.70;;
11931;SDS011;6025;51.368;6.788;2022-07-30T16:50:22;5.88;;;1.90;;
11931;SDS011;6025;51.368;6.788;2022-07-30T16:55:15;3.67;;;1.80;;
11931;SDS011;6025;51.368;6.788;2022-07-30T17:00:07;6.03;;;2.00;;
11931;SDS011;6025;51.368;6.788;2022-07-30T17:05:01;4.05;;;2.03;;
11931;SDS011;6025;51.368;6.788;2022-07-30T17:09:53;3.10;;;1.83;;
11931;SDS011;6025;51.368;6.788;2022-07-30T17:14:46;5.20;;;1.85;;
11931;SDS011;6025;51.368;6.788;2022-07-30T17:19:37;5.50;;;2.10;;
11931;SDS011;6025;51.368;6.788;2022-07-30T17:24:29;5.03;;;1.85;;
11931;SDS011;6025;51.368;6.788;2022-07-30T17:29:21;3.13;;;1.90;;
11931;SDS011;6025;51.368;6.788;2022-07-30T17:34:14;4.85;;;2.00;;
11931;SDS011;6025;51.368;6.788;2022-07-30T17:39:09;4.70;;;2.65;;
11931;SDS011;6025;51.368;6.788;2022-07-30T17:44:00;4.90;;;1.80;;
11931;SDS011;6025;51.368;6.788;2022-07-30T17:48:52;2.42;;;1.65;;
11931;SDS011;6025;51.368;6.788;2022-07-30T17:53:45;3.70;;;1.80;;
11931;SDS011;6025;51.368;6.788;2022-07-30T17:58:37;2.78;;;1.77;;
11931;SDS011;6025;51.368;6.788;2022-07-30T18:03:28;5.18;;;2.03;;
11931;SDS011;6025;51.368;6.788;2022-07-30T18:08:21;2.72;;;1.70;;
11931;SDS011;6025;51.368;6.788;2022-07-30T18:13:14;3.80;;;1.90;;
11931;SDS011;6025;51.368;6.788;2022-07-30T18:18:05;5.15;;;2.05;;
11931;SDS011;6025;51.368;6.788;2022-07-30T18:22:57;4.05;;;2.65;;
11931;SDS011;6025;51.368;6.788;2022-07-30T18:27:49;3.17;;;2.00;;
11931;SDS011;6025;51.368;6.788;2022-07-30T18:32:42;4.75;;;2.10;;
11931;SDS011;6025;51.368;6.788;2022-07-30T18:37:34;5.07;;;2.35;;
11931;SDS011;6025;51.368;6.788;2022-07-30T18:42:26;5.45;;;1.95;;
11931;SDS011;6025;51.368;6.788;2022-07-30T18:47:17;4.50;;;1.90;;
11931;SDS011;6025;51.368;6.788;2022-07-30T18:52:10;6.18;;;2.03;;
11931;SDS011;6025;51.368;6.788;2022-07-30T18:57:02;5.53;;;2.22;;
11931;SDS011;6025;51.368;6.788;2022-07-30T19:01:54;7.82;;;2.30;;
11931;SDS011;6025;51.368;6.788;2022-07-30T19:06:46;2.38;;;1.90;;
11931;SDS011;6025;51.368;6.788;2022-07-30T19:11:39;4.00;;;2.03;;
11931;SDS011;6025;51.368;6.788;2022-07-30T19:16:31;2.78;;;1.90;;
11931;SDS011;6025;51.368;6.788;2022-07-30T19:21:23;3.20;;;2.03;;
11931;SDS011;6025;51.368;6.788;2022-07-30T19:26:17;3.33;;;1.90;;
11931;SDS011;6025;51.368;6.788;2022-07-30T19:31:16;3.58;;;1.88;;
11931;SDS011;6025;51.368;6.788;2022-07-30T19:36:08;2.03;;;1.60;;
11931;SDS011;6025;51.368;6.788;2022-07-30T19:40:59;4.13;;;1.83;;
11931;SDS011;6025;51.368;6.788;2022-07-30T19:45:51;2.97;;;1.90;;
11931;SDS011;6025;51.368;6.788;2022-07-30T19:50:44;4.03;;;1.77;;
11931;SDS011;6025;51.368;6.788;2022-07-30T19:55:36;3.38;;;1.77;;
11931;SDS011;6025;51.368;6.788;2022-07-30T20:00:28;2.90;;;1.90;;
11931;SDS011;6025;51.368;6.788;2022-07-30T20:05:20;5.55;;;2.10;;
11931;SDS011;6025;51.368;6.788;2022-07-30T20:10:13;6.93;;;2.10;;
11931;SDS011;6025;51.368;6.788;2022-07-30T20:15:05;3.33;;;1.70;;
11931;SDS011;6025;51.368;6.788;2022-07-30T20:19:57;3.92;;;1.90;;
11931;SDS011;6025;51.368;6.788;2022-07-30T20:24:49;3.45;;;1.95;;
11931;SDS011;6025;51.368;6.788;2022-07-30T20:29:42;3.90;;;2.17;;
11931;SDS011;6025;51.368;6.788;2022-07-30T20:34:34;3.58;;;2.00;;
11931;SDS011;6025;51.368;6.788;2022-07-30T20:39:25;4.20;;;1.80;;
11931;SDS011;6025;51.368;6.788;2022-07-30T20:44:17;3.95;;;2.08;;
11931;SDS011;6025;51.368;6.788;2022-07-30T20:49:10;10.23;;;2.40;;
11931;SDS011;6025;51.368;6.788;2022-07-30T20:54:02;4.15;;;2.45;;
11931;SDS011;6025;51.368;6.788;2022-07-30T20:58:53;4.20;;;2.20;;
11931;SDS011;6025;51.368;6.788;2022-07-30T21:03:45;5.68;;;2.40;;
11931;SDS011;6025;51.368;6.788;2022-07-30T21:08:38;2.80;;;2.15;;
11931;SDS011;6025;51.368;6.788;2022-07-30T21:13:29;6.13;;;2.20;;
11931;SDS011;6025;51.368;6.788;2022-07-30T21:18:21;3.05;;;2.30;;
11931;SDS011;6025;51.368;6.788;2022-07-30T21:23:13;3.42;;;2.17;;
11931;SDS011;6025;51.368;6.788;2022-07-30T21:28:09;2.83;;;1.90;;
11931;SDS011;6025;51.368;6.788;2022-07-30T21:33:00;2.85;;;2.20;;
11931;SDS011;6025;51.368;6.788;2022-07-30T21:37:52;4.47;;;2.30;;
11931;SDS011;6025;51.368;6.788;2022-07-30T21:42:44;4.13;;;2.15;;
11931;SDS011;6025;51.368;6.788;2022-07-30T21:47:36;4.60;;;2.22;;
11931;SDS011;6025;51.368;6.788;2022-07-30T21:52:29;3.05;;;2.10;;
11931;SDS011;6025;51.368;6.788;2022-07-30T21:57:21;3.63;;;2.08;;
11931;SDS011;6025;51.368;6.788;2022-07-30T22:02:13;3.10;;;2.42;;
11931;SDS011;6025;51.368;6.788;2022-07-30T22:07:06;3.28;;;2.25;;
11931;SDS011;6025;51.368;6.788;2022-07-30T22:11:57;4.63;;;2.50;;
11931;SDS011;6025;51.368;6.788;2022-07-30T22:16:49;6.15;;;2.42;;
11931;SDS011;6025;51.368;6.788;2022-07-30T22:21:41;4.78;;;2.60;;
11931;SDS011;6025;51.368;6.788;2022-07-30T22:26:34;3.50;;;2.45;;
11931;SDS011;6025;51.368;6.788;2022-07-30T22:31:25;3.85;;;2.35;;
11931;SDS011;6025;51.368;6.788;2022-07-30T22:36:17;2.30;;;2.10;;
11931;SDS011;6025;51.368;6.788;2022-07-30T22:41:09;3.20;;;2.20;;
11931;SDS011;6025;51.368;6.788;2022-07-30T22:46:03;3.13;;;2.22;;
11931;SDS011;6025;51.368;6.788;2022-07-30T22:50:55;3.22;;;2.55;;
11931;SDS011;6025;51.368;6.788;2022-07-30T22:55:46;3.10;;;2.30;;
11931;SDS011;6025;51.368;6.788;2022-07-30T23:00:38;3.25;;;2.47;;
11931;SDS011;6025;51.368;6.788;2022-07-30T23:05:31;4.95;;;2.40;;
11931;SDS011;6025;51.368;6.788;2022-07-30T23:10:23;5.47;;;2.80;;
11931;SDS011;6025;51.368;6.788;2022-07-30T23:15:15;3.50;;;2.40;;
11931;SDS011;6025;51.368;6.788;2022-07-30T23:20:08;4.43;;;2.65;;
11931;SDS011;6025;51.368;6.788;2022-07-30T23:25:03;4.90;;;2.80;;
11931;SDS011;6025;51.368;6.788;2022-07-30T23:29:56;3.78;;;2.70;;
11931;SDS011;6025;51.368;6.788;2022-07-30T23:34:47;4.97;;;2.70;;
11931;SDS011;6025;51.368;6.788;2022-07-30T23:39:39;3.55;;;2.45;;
11931;SDS011;6025;51.368;6.788;2022-07-30T23:44:32;4.63;;;2.58;;
11931;SDS011;6025;51.368;6.788;2022-07-30T23:49:23;4.13;;;2.60;;
11931;SDS011;6025;51.368;6.788;2022-07-30T23:54:15;4.78;;;2.60;;
11931;SDS011;6025;51.368;6.788;2022-07-30T23:59:07;3.95;;;2.60;;
